createdAt,value
2022-09-21T00:01:39.753Z,10.75
2022-09-21T00:04:09.686Z,13.77
2022-09-21T00:06:39.112Z,11.75
2022-09-21T00:09:09.489Z,13.40
2022-09-21T00:11:38.546Z,10.43
2022-09-21T00:14:10.712Z,11.30
2022-09-21T00:16:40.407Z,10.32
2022-09-21T00:19:10.585Z,11.02
2022-09-21T00:21:39.484Z,10.73
2022-09-21T00:24:08.703Z,12.00
2022-09-21T00:26:37.055Z,9.68
2022-09-21T00:29:05.839Z,9.82
2022-09-21T00:31:35.012Z,10.48
2022-09-21T00:34:03.904Z,11.32
2022-09-21T00:36:33.683Z,8.20
2022-09-21T00:39:03.434Z,13.20
2022-09-21T00:41:34.644Z,12.90
2022-09-21T00:44:25.279Z,12.75
2022-09-21T00:46:56.618Z,11.52
2022-09-21T00:49:26.714Z,10.27
2022-09-21T00:51:58.354Z,12.77
2022-09-21T00:54:31.223Z,8.52
2022-09-21T00:57:03.186Z,12.30
2022-09-21T00:59:33.773Z,11.32
2022-09-21T01:02:02.737Z,13.35
2022-09-21T01:04:31.864Z,9.75
2022-09-21T01:07:05.778Z,11.90
2022-09-21T01:09:34.887Z,11.20
2022-09-21T01:12:19.468Z,9.80
2022-09-21T01:14:59.012Z,11.18
2022-09-21T01:17:37.551Z,10.27
2022-09-21T01:20:37.057Z,11.65
2022-09-21T01:23:23.885Z,8.10
2022-09-21T01:26:05.721Z,9.77
2022-09-21T01:28:55.964Z,11.05
2022-09-21T01:31:29.604Z,12.45
2022-09-21T01:34:05.908Z,8.60
2022-09-21T01:36:36.202Z,8.93
2022-09-21T01:39:09.667Z,10.27
2022-09-21T01:41:41.751Z,9.73
2022-09-21T01:44:16.027Z,9.52
2022-09-21T01:46:47.175Z,14.77
2022-09-21T01:49:19.210Z,11.48
2022-09-21T01:51:51.576Z,13.63
2022-09-21T01:54:23.431Z,11.23
2022-09-21T01:56:56.882Z,12.20
2022-09-21T01:59:32.772Z,11.23
2022-09-21T02:02:06.202Z,9.52
2022-09-21T02:04:36.312Z,16.13
2022-09-21T02:07:06.034Z,11.93
2022-09-21T02:09:36.630Z,9.60
2022-09-21T02:12:05.874Z,14.70
2022-09-21T02:14:38.490Z,9.82
2022-09-21T02:17:16.605Z,12.75
2022-09-21T02:19:50.820Z,9.02
2022-09-21T02:22:29.511Z,12.30
2022-09-21T02:25:06.600Z,10.23
2022-09-21T02:27:42.246Z,10.02
2022-09-21T02:30:16.122Z,14.07
2022-09-21T02:32:51.717Z,15.23
2022-09-21T02:35:32.245Z,11.77
2022-09-21T02:38:08.383Z,14.68
2022-09-21T02:40:41.745Z,12.32
2022-09-21T02:43:16.296Z,16.50
2022-09-21T02:45:52.232Z,10.02
2022-09-21T02:48:25.850Z,14.55
2022-09-21T02:50:59.003Z,11.55
2022-09-21T02:53:31.414Z,11.18
2022-09-21T02:56:04.120Z,12.40
2022-09-21T02:58:33.915Z,10.95
2022-09-21T03:01:04.598Z,12.13
2022-09-21T03:03:33.208Z,11.93
2022-09-21T03:06:02.223Z,11.50
2022-09-21T03:08:31.193Z,11.23
2022-09-21T03:10:59.537Z,9.05
2022-09-21T03:13:28.092Z,12.60
2022-09-21T03:16:01.687Z,8.95
2022-09-21T03:18:32.196Z,14.02
2022-09-21T03:21:00.983Z,9.65
2022-09-21T03:23:29.553Z,12.18
2022-09-21T03:25:57.948Z,11.93
2022-09-21T03:28:26.655Z,11.88
2022-09-21T03:30:55.153Z,10.85
2022-09-21T03:33:25.256Z,9.43
2022-09-21T03:35:55.456Z,11.70
2022-09-21T03:38:27.072Z,12.38
2022-09-21T03:40:58.395Z,11.75
2022-09-21T03:43:27.209Z,13.05
2022-09-21T03:45:55.634Z,14.45
2022-09-21T03:48:24.119Z,14.98
2022-09-21T03:50:55.052Z,14.55
2022-09-21T03:53:23.452Z,15.70
2022-09-21T03:55:51.783Z,16.67
2022-09-21T03:58:20.193Z,16.08
2022-09-21T04:00:48.582Z,20.30
2022-09-21T04:03:16.995Z,15.98
2022-09-21T04:05:45.308Z,14.43
2022-09-21T04:08:15.115Z,13.68
2022-09-21T04:10:43.578Z,14.32
2022-09-21T04:13:13.666Z,16.35
2022-09-21T04:15:42.217Z,14.90
2022-09-21T04:18:10.613Z,17.80
2022-09-21T04:20:38.976Z,17.38
2022-09-21T04:23:09.468Z,17.55
2022-09-21T04:25:39.253Z,14.45
2022-09-21T04:28:07.919Z,17.63
2022-09-21T04:30:38.020Z,19.52
2022-09-21T04:33:06.601Z,19.58
2022-09-21T04:35:35.133Z,16.20
2022-09-21T04:38:03.502Z,16.00
2022-09-21T04:40:32.025Z,18.10
2022-09-21T04:43:02.065Z,19.65
2022-09-21T04:45:31.236Z,17.90
2022-09-21T04:47:59.653Z,15.60
2022-09-21T04:50:28.109Z,19.63
2022-09-21T04:53:05.972Z,21.80
2022-09-21T04:55:34.375Z,18.08
2022-09-21T04:58:04.156Z,14.50
2022-09-21T05:00:33.146Z,14.27
2022-09-21T05:03:01.473Z,14.50
2022-09-21T05:05:30.032Z,15.02
2022-09-21T05:07:58.401Z,14.82
2022-09-21T05:10:25.832Z,11.45
2022-09-21T05:12:54.496Z,12.77
2022-09-21T05:15:24.255Z,12.85
2022-09-21T05:17:52.747Z,12.82
2022-09-21T05:20:21.149Z,14.77
2022-09-21T05:22:49.565Z,12.90
2022-09-21T05:25:18.602Z,8.48
2022-09-21T05:27:46.961Z,14.10
2022-09-21T05:30:16.670Z,12.60
2022-09-21T05:32:51.748Z,14.32
2022-09-21T05:35:31.732Z,12.38
2022-09-21T05:38:05.763Z,9.52
2022-09-21T05:40:35.176Z,11.85
2022-09-21T05:43:04.324Z,11.18
2022-09-21T05:45:33.721Z,11.00
2022-09-21T05:48:13.543Z,9.50
2022-09-21T05:50:54.403Z,8.82
2022-09-21T05:53:43.167Z,12.52
2022-09-21T05:56:25.758Z,11.82
2022-09-21T05:59:02.455Z,10.60
2022-09-21T06:01:42.159Z,9.88
2022-09-21T06:04:13.788Z,10.88
2022-09-21T06:06:42.152Z,10.90
2022-09-21T06:09:10.594Z,11.80
2022-09-21T06:11:38.968Z,11.95
2022-09-21T06:14:07.553Z,9.98
2022-09-21T06:16:39.521Z,11.05
2022-09-21T06:19:08.094Z,11.88
2022-09-21T06:21:38.023Z,11.02
2022-09-21T06:24:06.738Z,9.45
2022-09-21T06:26:35.537Z,15.18
2022-09-21T06:29:03.927Z,9.60
2022-09-21T06:31:32.389Z,9.80
2022-09-21T06:34:01.256Z,10.43
2022-09-21T06:36:29.657Z,17.60
2022-09-21T06:38:59.488Z,17.48
2022-09-21T06:41:27.922Z,15.13
2022-09-21T06:43:57.376Z,10.00
2022-09-21T06:46:25.986Z,12.60
2022-09-21T06:48:54.511Z,9.63
2022-09-21T06:51:24.140Z,9.23
2022-09-21T06:53:56.933Z,12.00
2022-09-21T06:56:27.297Z,7.13
2022-09-21T06:58:56.639Z,12.40
2022-09-21T07:01:25.636Z,14.30
2022-09-21T07:03:54.659Z,10.65
2022-09-21T07:06:23.319Z,9.45
2022-09-21T07:11:43.865Z,9.35
2022-09-21T07:14:12.264Z,8.50
2022-09-21T07:16:41.222Z,6.22
2022-09-21T07:19:11.735Z,7.97
2022-09-21T07:21:40.805Z,13.90
2022-09-21T07:24:12.417Z,9.38
2022-09-21T07:26:41.286Z,10.63
2022-09-21T07:29:11.114Z,10.52
2022-09-21T07:31:39.792Z,10.48
2022-09-21T07:34:08.434Z,12.82
2022-09-21T07:36:36.857Z,9.50
2022-09-21T07:39:05.538Z,8.73
2022-09-21T07:41:33.911Z,9.52
2022-09-21T07:44:02.670Z,9.40
2022-09-21T07:46:32.728Z,10.10
2022-09-21T07:49:01.725Z,15.80
2022-09-21T07:51:30.129Z,12.25
2022-09-21T07:53:58.517Z,8.98
2022-09-21T07:56:27.469Z,8.48
2022-09-21T07:59:06.903Z,16.00
2022-09-21T08:01:38.303Z,11.70
2022-09-21T08:04:08.496Z,8.55
2022-09-21T08:06:40.322Z,11.10
2022-09-21T08:09:09.635Z,10.02
2022-09-21T08:11:39.347Z,10.00
2022-09-21T08:14:08.084Z,8.50
2022-09-21T08:16:39.601Z,10.52
2022-09-21T08:19:08.175Z,7.88
2022-09-21T08:21:36.593Z,6.93
2022-09-21T08:24:05.073Z,8.63
2022-09-21T08:26:33.688Z,8.60
2022-09-21T08:29:02.147Z,6.85
2022-09-21T08:31:31.164Z,5.63
2022-09-21T08:34:01.566Z,7.70
2022-09-21T08:36:30.346Z,7.55
2022-09-21T08:38:59.059Z,7.10
2022-09-21T08:41:46.495Z,5.85
2022-09-21T08:44:20.250Z,4.93
2022-09-21T08:46:56.119Z,6.25
2022-09-21T08:49:29.866Z,8.07
2022-09-21T08:52:02.918Z,6.45
2022-09-21T08:54:40.199Z,9.20
2022-09-21T08:57:13.291Z,6.68
2022-09-21T08:59:45.628Z,9.85
2022-09-21T09:02:38.155Z,6.68
2022-09-21T09:05:26.080Z,6.55
2022-09-21T09:08:19.000Z,5.75
2022-09-21T09:10:58.022Z,6.75
2022-09-21T09:13:51.637Z,6.15
2022-09-21T09:16:29.236Z,13.30
2022-09-21T09:19:02.910Z,7.20
2022-09-21T09:21:37.883Z,8.20
2022-09-21T09:24:12.514Z,14.63
2022-09-21T09:26:45.979Z,9.07
2022-09-21T09:29:24.272Z,7.85
2022-09-21T09:31:55.578Z,6.20
2022-09-21T09:34:30.234Z,8.25
2022-09-21T09:37:06.980Z,11.38
2022-09-21T09:39:35.485Z,8.80
2022-09-21T09:42:20.245Z,8.50
2022-09-21T09:45:04.054Z,10.85
2022-09-21T09:47:45.788Z,7.65
2022-09-21T09:50:21.883Z,7.88
2022-09-21T09:52:54.391Z,7.28
2022-09-21T09:55:30.349Z,9.35
2022-09-21T09:57:59.222Z,6.80
2022-09-21T10:00:27.766Z,4.65
2022-09-21T10:02:58.707Z,8.23
2022-09-21T10:05:34.730Z,5.25
2022-09-21T10:08:04.907Z,6.30
2022-09-21T10:10:36.457Z,4.72
2022-09-21T10:13:12.138Z,5.13
2022-09-21T10:15:45.418Z,5.25
2022-09-21T10:18:21.543Z,4.07
2022-09-21T10:20:58.372Z,4.53
2022-09-21T10:26:03.571Z,4.18
2022-09-21T10:28:32.598Z,8.48
2022-09-21T10:31:12.278Z,5.18
2022-09-21T10:33:50.074Z,7.57
2022-09-21T10:36:30.994Z,6.95
2022-09-21T10:39:18.928Z,7.13
2022-09-21T10:41:51.280Z,5.78
2022-09-21T10:44:21.829Z,4.03
2022-09-21T10:46:51.897Z,8.45
2022-09-21T10:49:24.286Z,6.43
2022-09-21T10:51:55.150Z,5.78
2022-09-21T10:54:28.573Z,6.05
2022-09-21T10:57:03.513Z,5.90
2022-09-21T10:59:33.878Z,5.20
2022-09-21T11:02:03.495Z,6.90
2022-09-21T11:04:40.608Z,5.85
2022-09-21T11:07:22.052Z,5.43
2022-09-21T11:09:59.889Z,5.22
2022-09-21T11:12:39.551Z,6.38
2022-09-21T11:15:18.432Z,5.05
2022-09-21T11:17:53.464Z,8.23
2022-09-21T11:20:31.745Z,5.70
2022-09-21T11:23:06.546Z,8.00
2022-09-21T11:25:42.529Z,5.13
2022-09-21T11:28:19.621Z,5.95
2022-09-21T11:31:05.952Z,5.40
2022-09-21T11:33:49.643Z,8.15
2022-09-21T11:36:26.952Z,5.85
2022-09-21T11:39:04.601Z,5.47
2022-09-21T11:41:57.232Z,7.15
2022-09-21T11:44:39.444Z,5.75
2022-09-21T11:47:19.166Z,8.65
2022-09-21T11:50:29.399Z,5.57
2022-09-21T11:53:07.078Z,8.10
2022-09-21T11:55:49.483Z,6.25
2022-09-21T11:58:28.745Z,8.38
2022-09-21T12:01:10.212Z,5.45
2022-09-21T12:03:50.880Z,5.30
2022-09-21T12:06:46.585Z,6.88
2022-09-21T12:09:35.876Z,6.53
2022-09-21T12:12:10.836Z,7.22
2022-09-21T12:15:01.359Z,4.30
2022-09-21T12:17:44.787Z,6.05
2022-09-21T12:20:23.261Z,5.78
2022-09-21T12:22:58.404Z,3.90
2022-09-21T12:25:37.938Z,5.65
2022-09-21T12:28:13.734Z,4.47
2022-09-21T12:30:51.327Z,5.43
2022-09-21T12:33:26.880Z,4.50
2022-09-21T12:36:00.460Z,4.43
2022-09-21T12:41:16.201Z,5.45
2022-09-21T12:43:48.390Z,4.95
2022-09-21T12:46:22.763Z,4.68
2022-09-21T12:48:53.087Z,4.72
2022-09-21T12:51:26.891Z,3.88
2022-09-21T12:54:00.161Z,3.83
2022-09-21T12:56:38.980Z,6.22
2022-09-21T12:59:31.944Z,5.25
2022-09-21T13:02:14.735Z,3.10
2022-09-21T13:04:53.521Z,6.38
2022-09-21T13:08:04.519Z,3.15
2022-09-21T13:10:40.890Z,5.70
2022-09-21T13:13:24.299Z,2.40
2022-09-21T13:15:53.714Z,3.30
2022-09-21T13:18:29.719Z,2.63
2022-09-21T13:21:02.221Z,3.17
2022-09-21T13:23:42.201Z,5.93
2022-09-21T13:26:13.030Z,6.22
2022-09-21T13:28:46.345Z,5.32
2022-09-21T13:31:43.528Z,5.07
2022-09-21T13:34:28.984Z,4.80
2022-09-21T13:37:28.581Z,4.00
2022-09-21T13:40:40.011Z,3.35
2022-09-21T13:43:46.554Z,10.40
2022-09-21T13:46:52.488Z,8.13
2022-09-21T13:49:31.348Z,7.80
2022-09-21T13:52:03.369Z,5.07
2022-09-21T13:54:35.650Z,5.88
2022-09-21T13:57:21.561Z,3.58
2022-09-21T14:00:06.315Z,6.72
2022-09-21T14:02:44.512Z,4.65
2022-09-21T14:05:26.998Z,5.78
2022-09-21T14:07:58.632Z,6.57
2022-09-21T14:10:29.577Z,4.38
2022-09-21T14:12:58.340Z,7.47
2022-09-21T14:15:39.238Z,8.35
2022-09-21T14:18:47.161Z,3.83
2022-09-21T14:21:18.748Z,3.00
2022-09-21T14:24:23.131Z,3.60
2022-09-21T14:27:03.428Z,6.53
2022-09-21T14:29:40.584Z,3.65
2022-09-21T14:34:45.077Z,2.97
2022-09-21T14:37:29.064Z,6.65
2022-09-21T14:39:59.553Z,3.50
2022-09-21T14:42:29.932Z,4.50
2022-09-21T14:45:04.020Z,4.15
2022-09-21T14:47:53.039Z,5.40
2022-09-21T14:53:29.889Z,6.33
2022-09-21T14:56:22.649Z,6.72
2022-09-21T14:59:07.660Z,5.47
2022-09-21T15:01:42.264Z,4.88
2022-09-21T15:04:33.566Z,7.85
2022-09-21T15:07:35.043Z,5.05
2022-09-21T15:10:40.429Z,5.20
2022-09-21T15:13:25.747Z,5.97
2022-09-21T15:16:09.451Z,4.50
2022-09-21T15:18:42.698Z,7.00
2022-09-21T15:21:22.647Z,5.65
2022-09-21T15:23:53.087Z,4.90
2022-09-21T15:26:26.811Z,4.75
2022-09-21T15:29:09.429Z,4.53
2022-09-21T15:31:40.619Z,5.22
2022-09-21T15:34:10.965Z,5.10
2022-09-21T15:36:41.813Z,7.88
2022-09-21T15:39:23.032Z,7.35
2022-09-21T15:42:18.091Z,5.97
2022-09-21T15:44:48.736Z,8.00
2022-09-21T15:47:20.152Z,6.95
2022-09-21T15:49:49.194Z,6.85
2022-09-21T15:52:24.828Z,4.50
2022-09-21T15:54:59.506Z,5.32
2022-09-21T15:57:38.996Z,5.32
2022-09-21T16:00:20.052Z,5.38
2022-09-21T16:03:05.437Z,5.35
2022-09-21T16:05:46.308Z,5.88
2022-09-21T16:08:36.514Z,5.35
2022-09-21T16:11:23.248Z,6.82
2022-09-21T16:14:21.500Z,6.15
2022-09-21T16:17:25.351Z,8.07
2022-09-21T16:20:19.958Z,7.20
2022-09-21T16:22:50.369Z,7.40
2022-09-21T16:25:30.131Z,6.28
2022-09-21T16:28:00.893Z,10.05
2022-09-21T17:06:22.872Z,5.57
2022-09-21T17:08:51.437Z,5.65
2022-09-21T17:11:21.087Z,6.47
2022-09-21T17:13:50.045Z,6.38
2022-09-21T17:16:20.256Z,2.63
2022-09-21T17:18:50.200Z,3.58
2022-09-21T17:21:20.129Z,3.58
2022-09-21T17:23:48.530Z,2.10
2022-09-21T17:26:21.221Z,4.03
2022-09-21T17:28:50.264Z,3.47
2022-09-21T18:59:15.983Z,3.97
2022-09-21T19:01:45.606Z,3.00
2022-09-21T19:04:17.153Z,3.03
2022-09-21T19:06:52.582Z,5.15
2022-09-21T19:09:33.250Z,4.80
2022-09-21T19:12:18.506Z,4.30
2022-09-21T19:14:59.207Z,4.63
2022-09-21T19:17:43.137Z,4.18
2022-09-21T19:20:30.896Z,4.57
2022-09-21T19:23:06.321Z,3.88
2022-09-21T19:25:48.684Z,3.55
2022-09-21T19:28:38.969Z,5.10
2022-09-21T19:31:12.984Z,4.25
2022-09-21T19:33:51.092Z,3.67
2022-09-21T19:36:20.663Z,3.85
2022-09-21T19:38:49.397Z,4.45
2022-09-21T19:41:35.242Z,5.60
2022-09-21T19:44:16.909Z,6.40
2022-09-21T19:46:54.757Z,4.15
2022-09-21T19:49:27.672Z,4.43
2022-09-21T19:51:58.207Z,5.32
2022-09-21T19:54:45.271Z,7.82
2022-09-21T19:57:34.008Z,4.70
2022-09-21T20:00:03.333Z,5.18
2022-09-21T20:02:45.679Z,5.78
2022-09-21T20:05:23.352Z,4.97
2022-09-21T20:07:55.960Z,5.03
2022-09-21T20:10:44.361Z,4.47
2022-09-21T20:13:39.828Z,5.65
2022-09-21T20:16:22.477Z,6.03
2022-09-21T20:18:59.104Z,6.88
2022-09-21T20:21:37.946Z,4.00
2022-09-21T20:24:19.653Z,5.82
2022-09-21T20:26:50.756Z,4.30
2022-09-21T20:29:20.318Z,5.05
2022-09-21T20:31:52.402Z,3.72
2022-09-21T20:34:22.275Z,4.05
2022-09-21T20:36:50.746Z,4.63
2022-09-21T20:39:19.169Z,3.78
2022-09-21T20:41:47.530Z,5.72
2022-09-21T20:44:16.141Z,6.93
2022-09-21T20:46:44.545Z,7.28
2022-09-21T20:49:15.418Z,5.38
2022-09-21T20:51:46.030Z,6.07
2022-09-21T20:54:14.332Z,5.00
2022-09-21T20:56:42.837Z,5.78
2022-09-21T20:59:11.193Z,5.80
2022-09-21T21:01:39.684Z,5.03
2022-09-21T21:04:08.338Z,7.57
2022-09-21T21:06:37.870Z,4.95
2022-09-21T21:09:07.733Z,5.55
2022-09-21T21:11:36.115Z,7.45
2022-09-21T21:14:05.016Z,5.72
2022-09-21T21:16:34.295Z,5.10
2022-09-21T21:19:02.740Z,4.65
2022-09-21T21:21:31.254Z,6.60
2022-09-21T21:24:16.954Z,6.50
2022-09-21T21:27:03.250Z,5.25
2022-09-21T21:29:32.358Z,4.22
2022-09-21T21:32:01.138Z,4.10
2022-09-21T21:34:29.629Z,4.50
2022-09-21T21:36:58.139Z,5.85
2022-09-21T21:39:26.503Z,5.47
2022-09-21T21:41:56.269Z,4.95
2022-09-21T21:44:24.737Z,4.78
2022-09-21T21:46:53.488Z,5.07
2022-09-21T21:49:22.593Z,4.50
2022-09-21T21:51:51.282Z,4.20
2022-09-21T21:54:22.371Z,5.20
2022-09-21T21:56:51.212Z,5.15
2022-09-21T21:59:21.706Z,4.45
2022-09-21T22:01:50.134Z,4.97
2022-09-21T22:04:18.528Z,4.70
2022-09-21T22:06:46.870Z,3.83
2022-09-21T22:09:16.532Z,5.00
2022-09-21T22:11:44.983Z,4.22
2022-09-21T22:14:13.395Z,3.47
2022-09-21T22:16:43.238Z,4.80
2022-09-21T22:19:11.767Z,4.40
2022-09-21T22:21:42.454Z,4.80
2022-09-21T22:24:11.525Z,4.97
2022-09-21T22:26:43.450Z,4.25
2022-09-21T22:29:13.503Z,4.60
2022-09-21T22:31:45.059Z,5.05
2022-09-21T22:34:14.886Z,5.00
2022-09-21T22:36:44.689Z,5.00
2022-09-21T22:39:14.062Z,6.72
2022-09-21T22:41:43.523Z,4.22
2022-09-21T22:44:12.593Z,5.90
2022-09-21T22:46:42.593Z,3.60
2022-09-21T22:49:10.983Z,4.63
2022-09-21T22:51:39.487Z,4.07
2022-09-21T22:54:08.036Z,4.03
2022-09-21T22:56:36.625Z,3.78
2022-09-21T22:59:06.534Z,4.80
2022-09-21T23:01:36.707Z,3.83
2022-09-21T23:04:08.814Z,4.43
2022-09-21T23:06:39.130Z,4.13
2022-09-21T23:09:09.348Z,3.50
2022-09-21T23:11:40.136Z,3.53
2022-09-21T23:14:08.632Z,3.58
2022-09-21T23:16:37.108Z,5.90
2022-09-21T23:19:07.231Z,5.15
2022-09-21T23:21:35.559Z,5.85
2022-09-21T23:24:05.458Z,4.45
2022-09-21T23:26:34.877Z,7.15
2022-09-21T23:29:08.339Z,4.47
2022-09-21T23:31:41.112Z,4.13
2022-09-21T23:34:13.779Z,4.28
2022-09-21T23:36:42.706Z,4.53
2022-09-21T23:39:12.741Z,4.22
2022-09-21T23:41:41.759Z,4.65
2022-09-21T23:44:10.384Z,4.15
2022-09-21T23:46:40.509Z,4.93
2022-09-21T23:49:09.138Z,4.40
2022-09-21T23:51:38.911Z,3.88
2022-09-21T23:54:07.571Z,7.10
2022-09-21T23:56:36.300Z,8.18
2022-09-21T23:59:05.683Z,9.13
